createdAt,value
2022-08-22T00:02:47.979Z,21.58
2022-08-22T00:03:27.920Z,18.33
2022-08-22T00:09:48.736Z,18.49
2022-08-22T00:15:43.737Z,18.41
2022-08-22T00:22:02.160Z,18.27
2022-08-22T00:27:55.370Z,18.15
2022-08-22T00:33:42.195Z,18.06
2022-08-22T00:39:34.543Z,18.02
2022-08-22T00:45:48.072Z,17.85
2022-08-22T00:52:18.853Z,17.87
2022-08-22T00:58:29.822Z,17.77
2022-08-22T01:04:35.648Z,17.63
2022-08-22T01:10:52.727Z,17.63
2022-08-22T01:16:59.179Z,17.37
2022-08-22T01:23:10.875Z,17.30
2022-08-22T01:29:28.537Z,17.31
2022-08-22T01:35:44.258Z,17.21
2022-08-22T01:42:10.944Z,17.14
2022-08-22T01:48:22.125Z,17.06
2022-08-22T01:54:27.363Z,17.09
2022-08-22T02:00:18.948Z,17.09
2022-08-22T02:06:42.285Z,17.17
2022-08-22T02:12:41.864Z,17.01
2022-08-22T02:18:42.227Z,16.92
2022-08-22T02:24:54.622Z,16.86
2022-08-22T02:30:51.675Z,16.78
2022-08-22T02:36:53.859Z,16.79
2022-08-22T02:42:52.140Z,16.76
2022-08-22T02:49:00.238Z,16.78
2022-08-22T02:55:00.922Z,16.72
2022-08-22T03:01:14.101Z,16.67
2022-08-22T03:07:26.124Z,16.66
2022-08-22T03:13:33.840Z,16.63
2022-08-22T03:19:52.898Z,16.58
2022-08-22T03:25:46.065Z,16.58
2022-08-22T03:31:33.535Z,16.54
2022-08-22T03:37:30.466Z,16.42
2022-08-22T03:43:51.792Z,16.38
2022-08-22T03:50:04.533Z,16.37
2022-08-22T03:56:15.276Z,16.44
2022-08-22T04:02:43.115Z,16.42
2022-08-22T04:09:02.622Z,16.58
2022-08-22T04:15:10.066Z,16.47
2022-08-22T04:21:09.981Z,16.52
2022-08-22T04:27:06.131Z,16.39
2022-08-22T04:32:56.011Z,16.33
2022-08-22T04:38:53.836Z,16.26
2022-08-22T04:44:47.554Z,16.24
2022-08-22T04:50:57.690Z,16.17
2022-08-22T04:57:25.572Z,16.17
2022-08-22T05:03:16.832Z,16.12
2022-08-22T05:09:10.895Z,16.00
2022-08-22T05:15:18.956Z,16.22
2022-08-22T05:21:13.948Z,16.31
2022-08-22T05:27:11.323Z,16.33
2022-08-22T05:33:12.871Z,16.26
2022-08-22T05:39:05.069Z,16.36
2022-08-22T05:44:51.966Z,16.34
2022-08-22T05:50:46.396Z,16.38
2022-08-22T05:56:41.251Z,16.48
2022-08-22T06:03:06.475Z,16.64
2022-08-22T06:09:03.197Z,16.80
2022-08-22T06:15:02.666Z,17.06
2022-08-22T06:21:02.836Z,17.10
2022-08-22T06:26:52.272Z,17.32
2022-08-22T06:32:59.116Z,17.53
2022-08-22T06:38:53.166Z,17.72
2022-08-22T06:44:47.147Z,17.90
2022-08-22T06:50:36.368Z,18.10
2022-08-22T06:56:27.189Z,18.39
2022-08-22T07:02:28.020Z,18.52
2022-08-22T07:08:19.820Z,18.76
2022-08-22T07:14:12.288Z,18.95
2022-08-22T07:20:12.479Z,19.20
2022-08-22T07:26:14.889Z,19.48
2022-08-22T07:32:19.643Z,19.76
2022-08-22T07:38:34.874Z,19.85
2022-08-22T07:44:38.807Z,20.11
2022-08-22T07:51:45.986Z,20.21
2022-08-22T07:59:05.698Z,21.55
2022-08-22T08:05:01.306Z,22.55
2022-08-22T08:10:51.779Z,23.04
2022-08-22T08:16:50.932Z,23.65
2022-08-22T08:22:40.789Z,23.94
2022-08-22T08:28:34.614Z,23.88
2022-08-22T08:34:25.945Z,23.78
2022-08-22T08:40:56.585Z,24.45
2022-08-22T08:47:21.267Z,24.56
2022-08-22T09:00:13.810Z,25.09
2022-08-22T09:07:25.333Z,25.07
2022-08-22T09:13:40.867Z,25.45
2022-08-22T09:34:54.840Z,25.42
2022-08-22T09:48:40.536Z,24.07
2022-08-22T09:54:50.774Z,24.17
2022-08-22T10:00:51.396Z,24.94
2022-08-22T10:06:59.755Z,24.89
2022-08-22T10:13:10.450Z,24.78
2022-08-22T10:19:10.057Z,25.07
2022-08-22T10:25:36.907Z,25.06
2022-08-22T10:31:59.378Z,24.58
2022-08-22T10:38:16.407Z,24.60
2022-08-22T10:44:27.436Z,24.36
2022-08-22T10:50:31.831Z,24.49
2022-08-22T10:56:34.336Z,24.38
2022-08-22T11:02:46.718Z,24.20
2022-08-22T11:08:59.038Z,24.64
2022-08-22T11:15:02.931Z,24.59
2022-08-22T11:21:00.666Z,24.35
2022-08-22T11:34:23.279Z,24.69
2022-08-22T11:40:21.919Z,25.14
2022-08-22T11:46:23.784Z,24.78
2022-08-22T11:52:30.942Z,24.30
2022-08-22T11:58:46.565Z,24.15
2022-08-22T12:04:33.704Z,24.07
2022-08-22T12:10:39.093Z,24.01
2022-08-22T12:16:51.319Z,23.80
2022-08-22T12:23:00.357Z,23.64
2022-08-22T12:29:15.237Z,23.52
2022-08-22T12:35:57.275Z,23.44
2022-08-22T12:42:10.920Z,23.74
2022-08-22T12:48:10.043Z,24.50
2022-08-22T12:54:08.472Z,25.11
2022-08-22T13:00:09.698Z,24.85
2022-08-22T13:06:07.832Z,25.03
2022-08-22T13:12:20.011Z,25.07
2022-08-22T13:18:30.337Z,24.61
2022-08-22T13:24:56.953Z,24.27
2022-08-22T13:30:59.835Z,24.21
2022-08-22T13:45:20.623Z,24.13
2022-08-22T13:51:36.937Z,23.91
2022-08-22T13:57:41.237Z,23.59
2022-08-22T14:03:48.719Z,23.89
2022-08-22T14:09:56.651Z,24.21
2022-08-22T14:15:46.223Z,24.04
2022-08-22T14:21:41.209Z,24.14
2022-08-22T14:27:36.120Z,24.59
2022-08-22T14:33:27.693Z,24.75
2022-08-22T14:39:28.346Z,24.57
2022-08-22T14:45:22.351Z,24.29
2022-08-22T14:51:21.700Z,24.48
2022-08-22T14:57:20.763Z,24.41
2022-08-22T15:03:23.138Z,24.42
2022-08-22T15:09:28.831Z,24.47
2022-08-22T15:15:55.034Z,24.40
2022-08-22T15:21:45.645Z,24.23
2022-08-22T15:27:36.040Z,24.25
2022-08-22T15:33:29.412Z,24.17
2022-08-22T15:40:08.250Z,24.22
2022-08-22T15:46:23.020Z,24.35
2022-08-22T15:52:23.445Z,24.40
2022-08-22T15:58:26.182Z,24.52
2022-08-22T16:04:14.732Z,24.43
2022-08-22T16:10:10.216Z,24.25
2022-08-22T16:16:07.183Z,24.01
2022-08-22T16:21:54.478Z,23.62
2022-08-22T16:27:54.643Z,23.47
2022-08-22T16:33:43.674Z,23.49
2022-08-22T16:39:58.628Z,23.58
2022-08-22T16:45:48.979Z,23.58
2022-08-22T16:51:56.127Z,23.53
2022-08-22T16:58:05.736Z,23.43
2022-08-22T17:05:59.583Z,23.29
2022-08-22T17:11:27.015Z,23.26
2022-08-22T17:17:58.244Z,23.31
2022-08-22T17:24:05.949Z,23.13
2022-08-22T17:30:10.403Z,22.95
2022-08-22T17:36:27.246Z,22.97
2022-08-22T17:42:52.052Z,23.08
2022-08-22T17:49:02.776Z,22.97
2022-08-22T17:54:59.680Z,22.96
2022-08-22T18:01:04.838Z,22.75
2022-08-22T18:07:11.092Z,22.64
2022-08-22T18:13:06.680Z,22.47
2022-08-22T18:18:59.714Z,22.42
2022-08-22T18:25:02.036Z,22.22
2022-08-22T18:30:57.611Z,22.13
2022-08-22T18:37:05.593Z,22.11
2022-08-22T18:43:19.914Z,21.92
2022-08-22T18:49:21.143Z,21.97
2022-08-22T18:55:10.726Z,21.98
2022-08-22T19:01:23.324Z,21.76
2022-08-22T19:07:51.154Z,21.46
2022-08-22T19:14:12.953Z,21.14
2022-08-22T19:20:26.006Z,21.07
2022-08-22T19:26:35.861Z,20.61
2022-08-22T19:32:53.526Z,20.53
2022-08-22T19:39:09.022Z,20.60
2022-08-22T19:44:56.574Z,20.71
2022-08-22T19:50:43.805Z,20.62
2022-08-22T19:57:06.990Z,20.62
2022-08-22T20:03:05.392Z,20.61
2022-08-22T20:09:13.516Z,20.66
2022-08-22T20:15:16.890Z,20.61
2022-08-22T20:21:16.516Z,20.52
2022-08-22T20:27:21.727Z,20.52
2022-08-22T20:40:55.652Z,20.51
2022-08-22T20:47:19.388Z,20.53
2022-08-22T20:53:17.739Z,20.53
2022-08-22T20:59:26.122Z,20.57
2022-08-22T21:05:13.609Z,20.49
2022-08-22T21:11:22.201Z,20.44
2022-08-22T21:17:39.201Z,20.23
2022-08-22T21:23:45.293Z,20.14
2022-08-22T21:29:46.888Z,20.02
2022-08-22T21:35:34.328Z,19.86
2022-08-22T21:41:55.471Z,19.93
2022-08-22T21:47:43.294Z,20.08
2022-08-22T21:53:30.322Z,20.13
2022-08-22T21:59:50.571Z,20.08
2022-08-22T22:05:49.319Z,20.24
2022-08-22T22:11:36.481Z,20.25
2022-08-22T22:17:23.344Z,20.38
2022-08-22T22:23:11.005Z,20.36
2022-08-22T22:29:02.934Z,20.31
2022-08-22T22:34:49.824Z,20.17
2022-08-22T22:40:36.948Z,20.17
2022-08-22T22:46:35.562Z,20.02
2022-08-22T22:52:24.206Z,20.02
2022-08-22T22:58:13.741Z,20.05
2022-08-22T23:04:03.581Z,20.05
2022-08-22T23:09:54.475Z,20.08
2022-08-22T23:15:43.676Z,20.01
2022-08-22T23:21:31.098Z,20.20
2022-08-22T23:27:18.144Z,20.20
2022-08-22T23:33:06.130Z,20.18
2022-08-22T23:39:01.072Z,20.13
2022-08-22T23:44:50.418Z,20.22
2022-08-22T23:50:37.359Z,20.11
2022-08-22T23:56:38.099Z,20.25
